sensor_id;sensor_type;location;lat;lon;timestamp;P1;durP1;ratioP1;P2;durP2;ratioP2
22250;SDS011;59348;52.158;5.588;2023-02-18T00:01:07;65.85;;;28.35;;
22250;SDS011;59348;52.158;5.588;2023-02-18T00:03:35;62.80;;;28.65;;
22250;SDS011;59348;52.158;5.588;2023-02-18T00:06:08;63.03;;;30.05;;
22250;SDS011;59348;52.158;5.588;2023-02-18T00:08:37;64.63;;;30.08;;
22250;SDS011;59348;52.158;5.588;2023-02-18T00:11:05;68.82;;;32.38;;
22250;SDS011;59348;52.158;5.588;2023-02-18T00:13:32;62.97;;;33.35;;
22250;SDS011;59348;52.158;5.588;2023-02-18T00:16:00;68.28;;;34.00;;
22250;SDS011;59348;52.158;5.588;2023-02-18T00:18:27;68.28;;;34.17;;
22250;SDS011;59348;52.158;5.588;2023-02-18T00:20:55;76.53;;;34.35;;
22250;SDS011;59348;52.158;5.588;2023-02-18T00:23:22;74.95;;;35.95;;
22250;SDS011;59348;52.158;5.588;2023-02-18T00:25:51;80.20;;;35.40;;
22250;SDS011;59348;52.158;5.588;2023-02-18T00:28:24;71.65;;;35.03;;
22250;SDS011;59348;52.158;5.588;2023-02-18T00:30:51;72.97;;;36.08;;
22250;SDS011;59348;52.158;5.588;2023-02-18T00:33:19;77.32;;;36.58;;
22250;SDS011;59348;52.158;5.588;2023-02-18T00:35:46;82.63;;;37.47;;
22250;SDS011;59348;52.158;5.588;2023-02-18T00:38:13;82.85;;;37.03;;
22250;SDS011;59348;52.158;5.588;2023-02-18T00:40:41;79.18;;;36.67;;
22250;SDS011;59348;52.158;5.588;2023-02-18T00:43:10;73.68;;;37.38;;
22250;SDS011;59348;52.158;5.588;2023-02-18T00:45:37;74.55;;;36.75;;
22250;SDS011;59348;52.158;5.588;2023-02-18T00:48:05;76.80;;;37.45;;
22250;SDS011;59348;52.158;5.588;2023-02-18T00:50:32;77.55;;;37.70;;
22250;SDS011;59348;52.158;5.588;2023-02-18T00:52:59;81.28;;;36.97;;
22250;SDS011;59348;52.158;5.588;2023-02-18T00:55:26;78.20;;;38.13;;
22250;SDS011;59348;52.158;5.588;2023-02-18T00:57:54;77.10;;;37.85;;
22250;SDS011;59348;52.158;5.588;2023-02-18T01:00:22;83.30;;;38.00;;
22250;SDS011;59348;52.158;5.588;2023-02-18T01:02:50;84.55;;;38.45;;
22250;SDS011;59348;52.158;5.588;2023-02-18T01:05:18;88.15;;;39.20;;
22250;SDS011;59348;52.158;5.588;2023-02-18T01:07:46;86.47;;;39.60;;
22250;SDS011;59348;52.158;5.588;2023-02-18T01:10:13;90.60;;;38.53;;
22250;SDS011;59348;52.158;5.588;2023-02-18T01:12:40;91.68;;;39.47;;
22250;SDS011;59348;52.158;5.588;2023-02-18T01:15:08;89.00;;;38.47;;
22250;SDS011;59348;52.158;5.588;2023-02-18T01:17:36;103.10;;;40.78;;
22250;SDS011;59348;52.158;5.588;2023-02-18T01:20:04;91.38;;;39.35;;
22250;SDS011;59348;52.158;5.588;2023-02-18T01:22:32;94.18;;;39.58;;
22250;SDS011;59348;52.158;5.588;2023-02-18T01:24:59;90.22;;;39.28;;
22250;SDS011;59348;52.158;5.588;2023-02-18T01:27:26;90.72;;;38.40;;
22250;SDS011;59348;52.158;5.588;2023-02-18T01:29:53;89.60;;;37.25;;
22250;SDS011;59348;52.158;5.588;2023-02-18T01:32:21;91.68;;;37.20;;
22250;SDS011;59348;52.158;5.588;2023-02-18T01:34:49;86.85;;;35.90;;
22250;SDS011;59348;52.158;5.588;2023-02-18T01:37:17;93.50;;;36.97;;
22250;SDS011;59348;52.158;5.588;2023-02-18T01:39:51;80.85;;;34.95;;
22250;SDS011;59348;52.158;5.588;2023-02-18T01:42:20;91.47;;;36.15;;
22250;SDS011;59348;52.158;5.588;2023-02-18T01:44:47;91.55;;;36.30;;
22250;SDS011;59348;52.158;5.588;2023-02-18T01:47:15;92.03;;;35.42;;
22250;SDS011;59348;52.158;5.588;2023-02-18T01:49:43;92.85;;;34.90;;
22250;SDS011;59348;52.158;5.588;2023-02-18T01:52:14;96.05;;;35.22;;
22250;SDS011;59348;52.158;5.588;2023-02-18T01:54:41;89.88;;;34.33;;
22250;SDS011;59348;52.158;5.588;2023-02-18T01:57:11;87.32;;;34.75;;
22250;SDS011;59348;52.158;5.588;2023-02-18T01:59:47;82.95;;;34.50;;
22250;SDS011;59348;52.158;5.588;2023-02-18T02:02:16;80.15;;;33.17;;
22250;SDS011;59348;52.158;5.588;2023-02-18T02:04:44;67.30;;;30.63;;
22250;SDS011;59348;52.158;5.588;2023-02-18T02:07:11;73.32;;;30.67;;
22250;SDS011;59348;52.158;5.588;2023-02-18T02:09:40;69.32;;;29.95;;
22250;SDS011;59348;52.158;5.588;2023-02-18T02:14:54;69.13;;;31.52;;
22250;SDS011;59348;52.158;5.588;2023-02-18T02:17:29;71.20;;;30.48;;
22250;SDS011;59348;52.158;5.588;2023-02-18T02:25:27;77.93;;;32.92;;
22250;SDS011;59348;52.158;5.588;2023-02-18T02:28:06;77.97;;;31.25;;
22250;SDS011;59348;52.158;5.588;2023-02-18T02:30:46;80.03;;;32.28;;
22250;SDS011;59348;52.158;5.588;2023-02-18T02:33:32;77.97;;;31.58;;
22250;SDS011;59348;52.158;5.588;2023-02-18T02:36:05;82.15;;;33.45;;
22250;SDS011;59348;52.158;5.588;2023-02-18T02:38:36;87.28;;;34.50;;
22250;SDS011;59348;52.158;5.588;2023-02-18T02:41:09;94.15;;;35.20;;
22250;SDS011;59348;52.158;5.588;2023-02-18T02:43:42;103.65;;;35.88;;
22250;SDS011;59348;52.158;5.588;2023-02-18T02:46:11;111.63;;;37.55;;
22250;SDS011;59348;52.158;5.588;2023-02-18T02:48:43;100.53;;;37.17;;
22250;SDS011;59348;52.158;5.588;2023-02-18T02:51:15;101.75;;;36.63;;
22250;SDS011;59348;52.158;5.588;2023-02-18T02:53:44;106.65;;;37.63;;
22250;SDS011;59348;52.158;5.588;2023-02-18T02:56:13;114.90;;;39.17;;
22250;SDS011;59348;52.158;5.588;2023-02-18T02:58:41;98.63;;;37.67;;
22250;SDS011;59348;52.158;5.588;2023-02-18T03:01:14;103.38;;;38.33;;
22250;SDS011;59348;52.158;5.588;2023-02-18T03:03:49;108.85;;;37.72;;
22250;SDS011;59348;52.158;5.588;2023-02-18T03:06:26;103.00;;;38.40;;
22250;SDS011;59348;52.158;5.588;2023-02-18T03:08:55;106.80;;;38.83;;
22250;SDS011;59348;52.158;5.588;2023-02-18T03:11:28;105.43;;;38.80;;
22250;SDS011;59348;52.158;5.588;2023-02-18T03:13:59;107.88;;;38.10;;
22250;SDS011;59348;52.158;5.588;2023-02-18T03:16:32;109.82;;;40.13;;
22250;SDS011;59348;52.158;5.588;2023-02-18T03:19:02;98.20;;;38.42;;
22250;SDS011;59348;52.158;5.588;2023-02-18T03:21:34;109.80;;;38.08;;
22250;SDS011;59348;52.158;5.588;2023-02-18T03:24:04;103.32;;;38.17;;
22250;SDS011;59348;52.158;5.588;2023-02-18T03:26:33;99.10;;;37.60;;
22250;SDS011;59348;52.158;5.588;2023-02-18T03:29:02;95.30;;;38.08;;
22250;SDS011;59348;52.158;5.588;2023-02-18T03:31:31;97.07;;;37.25;;
22250;SDS011;59348;52.158;5.588;2023-02-18T03:34:01;89.55;;;36.20;;
22250;SDS011;59348;52.158;5.588;2023-02-18T03:36:29;100.00;;;37.80;;
22250;SDS011;59348;52.158;5.588;2023-02-18T03:39:00;85.50;;;36.22;;
22250;SDS011;59348;52.158;5.588;2023-02-18T03:41:29;96.43;;;35.35;;
22250;SDS011;59348;52.158;5.588;2023-02-18T03:43:59;85.82;;;33.00;;
22250;SDS011;59348;52.158;5.588;2023-02-18T03:46:27;78.63;;;31.65;;
22250;SDS011;59348;52.158;5.588;2023-02-18T03:48:55;75.47;;;30.70;;
22250;SDS011;59348;52.158;5.588;2023-02-18T03:51:22;77.13;;;28.90;;
22250;SDS011;59348;52.158;5.588;2023-02-18T03:53:49;72.30;;;28.23;;
22250;SDS011;59348;52.158;5.588;2023-02-18T03:56:18;55.60;;;23.88;;
22250;SDS011;59348;52.158;5.588;2023-02-18T03:58:46;55.95;;;23.65;;
22250;SDS011;59348;52.158;5.588;2023-02-18T04:01:13;52.28;;;21.92;;
22250;SDS011;59348;52.158;5.588;2023-02-18T04:03:40;53.00;;;21.40;;
22250;SDS011;59348;52.158;5.588;2023-02-18T04:06:08;48.10;;;20.40;;
22250;SDS011;59348;52.158;5.588;2023-02-18T04:08:35;43.80;;;18.10;;
22250;SDS011;59348;52.158;5.588;2023-02-18T04:11:02;41.83;;;18.27;;
22250;SDS011;59348;52.158;5.588;2023-02-18T04:13:31;39.58;;;16.95;;
22250;SDS011;59348;52.158;5.588;2023-02-18T04:15:59;32.78;;;15.10;;
22250;SDS011;59348;52.158;5.588;2023-02-18T04:18:26;33.45;;;13.98;;
22250;SDS011;59348;52.158;5.588;2023-02-18T04:20:53;30.58;;;13.43;;
22250;SDS011;59348;52.158;5.588;2023-02-18T04:23:20;29.20;;;13.00;;
22250;SDS011;59348;52.158;5.588;2023-02-18T04:25:48;22.70;;;11.02;;
22250;SDS011;59348;52.158;5.588;2023-02-18T04:28:15;24.05;;;11.65;;
22250;SDS011;59348;52.158;5.588;2023-02-18T04:30:45;22.00;;;11.07;;
22250;SDS011;59348;52.158;5.588;2023-02-18T04:33:12;17.73;;;9.40;;
22250;SDS011;59348;52.158;5.588;2023-02-18T04:35:40;19.75;;;9.77;;
22250;SDS011;59348;52.158;5.588;2023-02-18T04:38:07;14.75;;;8.32;;
22250;SDS011;59348;52.158;5.588;2023-02-18T04:40:35;16.08;;;8.63;;
22250;SDS011;59348;52.158;5.588;2023-02-18T04:43:02;13.57;;;7.97;;
22250;SDS011;59348;52.158;5.588;2023-02-18T04:45:30;15.68;;;8.40;;
22250;SDS011;59348;52.158;5.588;2023-02-18T04:47:58;14.93;;;8.43;;
22250;SDS011;59348;52.158;5.588;2023-02-18T04:50:26;13.20;;;8.00;;
22250;SDS011;59348;52.158;5.588;2023-02-18T04:52:53;13.25;;;8.18;;
22250;SDS011;59348;52.158;5.588;2023-02-18T04:55:20;12.02;;;8.02;;
22250;SDS011;59348;52.158;5.588;2023-02-18T04:57:47;13.18;;;7.80;;
22250;SDS011;59348;52.158;5.588;2023-02-18T05:00:16;12.38;;;8.10;;
22250;SDS011;59348;52.158;5.588;2023-02-18T05:02:44;12.10;;;7.78;;
22250;SDS011;59348;52.158;5.588;2023-02-18T05:05:13;11.98;;;8.35;;
22250;SDS011;59348;52.158;5.588;2023-02-18T05:07:40;11.45;;;8.32;;
22250;SDS011;59348;52.158;5.588;2023-02-18T05:10:16;13.65;;;8.50;;
22250;SDS011;59348;52.158;5.588;2023-02-18T05:12:44;11.68;;;8.85;;
22250;SDS011;59348;52.158;5.588;2023-02-18T05:15:11;12.25;;;8.82;;
22250;SDS011;59348;52.158;5.588;2023-02-18T05:17:39;12.70;;;9.02;;
22250;SDS011;59348;52.158;5.588;2023-02-18T05:20:07;17.05;;;10.10;;
22250;SDS011;59348;52.158;5.588;2023-02-18T05:22:35;15.60;;;10.20;;
22250;SDS011;59348;52.158;5.588;2023-02-18T05:25:03;14.65;;;10.55;;
22250;SDS011;59348;52.158;5.588;2023-02-18T05:27:30;15.35;;;11.32;;
22250;SDS011;59348;52.158;5.588;2023-02-18T05:29:57;16.42;;;11.25;;
22250;SDS011;59348;52.158;5.588;2023-02-18T05:32:25;17.73;;;11.50;;
22250;SDS011;59348;52.158;5.588;2023-02-18T05:34:52;17.35;;;11.10;;
22250;SDS011;59348;52.158;5.588;2023-02-18T05:37:19;15.18;;;10.35;;
22250;SDS011;59348;52.158;5.588;2023-02-18T05:39:48;15.10;;;10.20;;
22250;SDS011;59348;52.158;5.588;2023-02-18T05:42:15;14.70;;;9.98;;
22250;SDS011;59348;52.158;5.588;2023-02-18T05:44:42;15.02;;;9.38;;
22250;SDS011;59348;52.158;5.588;2023-02-18T05:47:10;15.65;;;10.15;;
22250;SDS011;59348;52.158;5.588;2023-02-18T05:49:38;14.05;;;10.27;;
22250;SDS011;59348;52.158;5.588;2023-02-18T05:52:06;15.45;;;10.23;;
22250;SDS011;59348;52.158;5.588;2023-02-18T05:54:36;19.00;;;11.75;;
22250;SDS011;59348;52.158;5.588;2023-02-18T05:57:05;18.17;;;11.63;;
22250;SDS011;59348;52.158;5.588;2023-02-18T05:59:32;18.27;;;13.23;;
22250;SDS011;59348;52.158;5.588;2023-02-18T06:01:59;23.17;;;15.57;;
22250;SDS011;59348;52.158;5.588;2023-02-18T06:04:29;23.98;;;15.88;;
22250;SDS011;59348;52.158;5.588;2023-02-18T06:06:57;26.63;;;18.05;;
22250;SDS011;59348;52.158;5.588;2023-02-18T06:09:24;27.67;;;19.05;;
22250;SDS011;59348;52.158;5.588;2023-02-18T06:11:51;27.58;;;19.67;;
22250;SDS011;59348;52.158;5.588;2023-02-18T06:14:20;32.67;;;22.58;;
22250;SDS011;59348;52.158;5.588;2023-02-18T06:16:47;31.08;;;22.48;;
22250;SDS011;59348;52.158;5.588;2023-02-18T06:19:15;32.95;;;22.95;;
22250;SDS011;59348;52.158;5.588;2023-02-18T06:21:42;35.67;;;22.38;;
22250;SDS011;59348;52.158;5.588;2023-02-18T06:24:13;29.20;;;21.48;;
22250;SDS011;59348;52.158;5.588;2023-02-18T06:26:40;32.97;;;22.58;;
22250;SDS011;59348;52.158;5.588;2023-02-18T06:29:08;28.13;;;21.48;;
22250;SDS011;59348;52.158;5.588;2023-02-18T06:31:37;31.77;;;22.52;;
22250;SDS011;59348;52.158;5.588;2023-02-18T06:34:04;31.50;;;21.88;;
22250;SDS011;59348;52.158;5.588;2023-02-18T06:36:31;32.05;;;22.30;;
22250;SDS011;59348;52.158;5.588;2023-02-18T06:39:00;31.45;;;21.75;;
22250;SDS011;59348;52.158;5.588;2023-02-18T06:41:28;31.25;;;21.55;;
22250;SDS011;59348;52.158;5.588;2023-02-18T06:43:55;31.38;;;21.77;;
22250;SDS011;59348;52.158;5.588;2023-02-18T06:46:22;32.30;;;21.77;;
22250;SDS011;59348;52.158;5.588;2023-02-18T06:48:51;31.25;;;20.77;;
22250;SDS011;59348;52.158;5.588;2023-02-18T06:51:18;29.35;;;20.75;;
22250;SDS011;59348;52.158;5.588;2023-02-18T06:53:45;29.23;;;20.05;;
22250;SDS011;59348;52.158;5.588;2023-02-18T06:56:13;27.60;;;20.10;;
22250;SDS011;59348;52.158;5.588;2023-02-18T06:58:40;27.40;;;18.67;;
22250;SDS011;59348;52.158;5.588;2023-02-18T07:01:10;25.10;;;17.88;;
22250;SDS011;59348;52.158;5.588;2023-02-18T07:03:37;27.42;;;16.20;;
22250;SDS011;59348;52.158;5.588;2023-02-18T07:06:06;22.92;;;15.38;;
22250;SDS011;59348;52.158;5.588;2023-02-18T07:08:33;22.95;;;14.77;;
22250;SDS011;59348;52.158;5.588;2023-02-18T07:11:01;23.63;;;14.63;;
22250;SDS011;59348;52.158;5.588;2023-02-18T07:13:29;21.30;;;13.98;;
22250;SDS011;59348;52.158;5.588;2023-02-18T07:15:56;21.75;;;14.02;;
22250;SDS011;59348;52.158;5.588;2023-02-18T07:18:23;24.77;;;15.88;;
22250;SDS011;59348;52.158;5.588;2023-02-18T07:20:50;27.20;;;16.30;;
22250;SDS011;59348;52.158;5.588;2023-02-18T07:23:19;27.55;;;17.20;;
22250;SDS011;59348;52.158;5.588;2023-02-18T07:25:46;32.38;;;18.75;;
22250;SDS011;59348;52.158;5.588;2023-02-18T07:28:14;37.30;;;19.65;;
22250;SDS011;59348;52.158;5.588;2023-02-18T07:30:41;32.83;;;18.55;;
22250;SDS011;59348;52.158;5.588;2023-02-18T07:33:08;39.65;;;19.58;;
22250;SDS011;59348;52.158;5.588;2023-02-18T07:35:35;32.97;;;20.98;;
22250;SDS011;59348;52.158;5.588;2023-02-18T07:38:03;35.08;;;20.52;;
22250;SDS011;59348;52.158;5.588;2023-02-18T07:40:31;37.95;;;20.88;;
22250;SDS011;59348;52.158;5.588;2023-02-18T07:42:58;36.08;;;20.40;;
22250;SDS011;59348;52.158;5.588;2023-02-18T07:45:26;41.97;;;21.98;;
22250;SDS011;59348;52.158;5.588;2023-02-18T07:47:53;34.25;;;21.58;;
22250;SDS011;59348;52.158;5.588;2023-02-18T07:50:20;31.98;;;20.52;;
22250;SDS011;59348;52.158;5.588;2023-02-18T07:52:47;33.33;;;20.70;;
22250;SDS011;59348;52.158;5.588;2023-02-18T07:55:15;32.90;;;20.05;;
22250;SDS011;59348;52.158;5.588;2023-02-18T07:57:43;35.28;;;19.75;;
22250;SDS011;59348;52.158;5.588;2023-02-18T08:00:24;33.75;;;18.50;;
22250;SDS011;59348;52.158;5.588;2023-02-18T08:02:52;30.30;;;18.73;;
22250;SDS011;59348;52.158;5.588;2023-02-18T08:05:28;30.83;;;16.38;;
22250;SDS011;59348;52.158;5.588;2023-02-18T08:07:55;27.55;;;15.13;;
22250;SDS011;59348;52.158;5.588;2023-02-18T08:10:22;33.47;;;14.07;;
22250;SDS011;59348;52.158;5.588;2023-02-18T08:12:51;29.05;;;13.95;;
22250;SDS011;59348;52.158;5.588;2023-02-18T08:15:18;27.98;;;12.98;;
22250;SDS011;59348;52.158;5.588;2023-02-18T08:17:45;34.38;;;12.02;;
22250;SDS011;59348;52.158;5.588;2023-02-18T08:20:13;30.65;;;11.40;;
22250;SDS011;59348;52.158;5.588;2023-02-18T08:22:40;30.90;;;10.43;;
22250;SDS011;59348;52.158;5.588;2023-02-18T08:25:07;28.02;;;9.65;;
22250;SDS011;59348;52.158;5.588;2023-02-18T08:27:35;27.48;;;9.25;;
22250;SDS011;59348;52.158;5.588;2023-02-18T08:30:03;29.00;;;9.15;;
22250;SDS011;59348;52.158;5.588;2023-02-18T08:32:31;27.83;;;8.18;;
22250;SDS011;59348;52.158;5.588;2023-02-18T08:34:58;23.02;;;7.68;;
22250;SDS011;59348;52.158;5.588;2023-02-18T08:37:25;29.75;;;8.70;;
22250;SDS011;59348;52.158;5.588;2023-02-18T08:39:53;29.13;;;7.70;;
22250;SDS011;59348;52.158;5.588;2023-02-18T08:42:20;29.85;;;7.20;;
22250;SDS011;59348;52.158;5.588;2023-02-18T08:44:47;29.85;;;7.13;;
22250;SDS011;59348;52.158;5.588;2023-02-18T08:47:16;29.35;;;7.15;;
22250;SDS011;59348;52.158;5.588;2023-02-18T08:49:43;27.42;;;7.00;;
22250;SDS011;59348;52.158;5.588;2023-02-18T08:52:10;32.30;;;6.47;;
22250;SDS011;59348;52.158;5.588;2023-02-18T08:54:38;26.17;;;6.15;;
22250;SDS011;59348;52.158;5.588;2023-02-18T08:57:05;30.40;;;6.05;;
22250;SDS011;59348;52.158;5.588;2023-02-18T08:59:32;24.77;;;6.20;;
22250;SDS011;59348;52.158;5.588;2023-02-18T09:02:00;23.88;;;5.57;;
22250;SDS011;59348;52.158;5.588;2023-02-18T09:04:28;21.75;;;5.18;;
22250;SDS011;59348;52.158;5.588;2023-02-18T09:06:56;27.25;;;5.47;;
22250;SDS011;59348;52.158;5.588;2023-02-18T09:09:23;28.27;;;5.47;;
22250;SDS011;59348;52.158;5.588;2023-02-18T09:11:50;24.17;;;4.43;;
22250;SDS011;59348;52.158;5.588;2023-02-18T09:14:18;23.92;;;5.00;;
22250;SDS011;59348;52.158;5.588;2023-02-18T09:16:45;19.95;;;4.97;;
22250;SDS011;59348;52.158;5.588;2023-02-18T09:19:14;25.65;;;4.70;;
22250;SDS011;59348;52.158;5.588;2023-02-18T09:21:43;24.55;;;5.22;;
22250;SDS011;59348;52.158;5.588;2023-02-18T09:24:10;26.00;;;4.80;;
22250;SDS011;59348;52.158;5.588;2023-02-18T09:26:38;25.85;;;4.75;;
22250;SDS011;59348;52.158;5.588;2023-02-18T09:29:05;23.02;;;4.70;;
22250;SDS011;59348;52.158;5.588;2023-02-18T09:31:32;23.63;;;5.15;;
22250;SDS011;59348;52.158;5.588;2023-02-18T09:34:01;21.25;;;4.50;;
22250;SDS011;59348;52.158;5.588;2023-02-18T09:36:28;21.23;;;4.60;;
22250;SDS011;59348;52.158;5.588;2023-02-18T09:38:57;21.25;;;4.72;;
22250;SDS011;59348;52.158;5.588;2023-02-18T09:41:26;18.95;;;4.88;;
22250;SDS011;59348;52.158;5.588;2023-02-18T09:43:54;26.27;;;4.70;;
22250;SDS011;59348;52.158;5.588;2023-02-18T09:46:23;23.20;;;4.43;;
22250;SDS011;59348;52.158;5.588;2023-02-18T09:48:53;16.92;;;3.60;;
22250;SDS011;59348;52.158;5.588;2023-02-18T09:51:20;20.73;;;3.95;;
22250;SDS011;59348;52.158;5.588;2023-02-18T09:53:48;19.75;;;3.67;;
22250;SDS011;59348;52.158;5.588;2023-02-18T09:56:18;21.00;;;4.20;;
22250;SDS011;59348;52.158;5.588;2023-02-18T09:58:46;13.43;;;3.90;;
22250;SDS011;59348;52.158;5.588;2023-02-18T10:01:16;18.20;;;3.85;;
22250;SDS011;59348;52.158;5.588;2023-02-18T10:03:46;18.60;;;4.10;;
22250;SDS011;59348;52.158;5.588;2023-02-18T10:06:15;15.00;;;3.63;;
22250;SDS011;59348;52.158;5.588;2023-02-18T10:08:44;20.38;;;3.90;;
22250;SDS011;59348;52.158;5.588;2023-02-18T10:11:12;15.40;;;3.53;;
22250;SDS011;59348;52.158;5.588;2023-02-18T10:13:42;19.92;;;3.65;;
22250;SDS011;59348;52.158;5.588;2023-02-18T10:16:13;18.17;;;3.65;;
22250;SDS011;59348;52.158;5.588;2023-02-18T10:18:42;16.95;;;4.18;;
22250;SDS011;59348;52.158;5.588;2023-02-18T10:21:14;21.75;;;3.95;;
22250;SDS011;59348;52.158;5.588;2023-02-18T10:23:44;22.23;;;3.85;;
22250;SDS011;59348;52.158;5.588;2023-02-18T10:26:13;13.23;;;3.78;;
22250;SDS011;59348;52.158;5.588;2023-02-18T10:28:43;24.65;;;3.95;;
22250;SDS011;59348;52.158;5.588;2023-02-18T10:31:13;19.40;;;3.85;;
22250;SDS011;59348;52.158;5.588;2023-02-18T10:33:41;20.52;;;3.80;;
22250;SDS011;59348;52.158;5.588;2023-02-18T10:36:17;16.38;;;3.40;;
22250;SDS011;59348;52.158;5.588;2023-02-18T10:38:51;22.60;;;4.32;;
22250;SDS011;59348;52.158;5.588;2023-02-18T10:41:25;14.63;;;3.25;;
22250;SDS011;59348;52.158;5.588;2023-02-18T10:43:58;18.08;;;3.72;;
22250;SDS011;59348;52.158;5.588;2023-02-18T10:46:28;18.50;;;3.80;;
22250;SDS011;59348;52.158;5.588;2023-02-18T10:49:01;15.90;;;3.72;;
22250;SDS011;59348;52.158;5.588;2023-02-18T10:51:31;18.50;;;3.38;;
22250;SDS011;59348;52.158;5.588;2023-02-18T10:53:59;15.85;;;4.00;;
22250;SDS011;59348;52.158;5.588;2023-02-18T10:56:35;17.80;;;3.80;;
22250;SDS011;59348;52.158;5.588;2023-02-18T10:59:13;19.55;;;3.95;;
22250;SDS011;59348;52.158;5.588;2023-02-18T11:01:41;19.15;;;3.88;;
22250;SDS011;59348;52.158;5.588;2023-02-18T11:04:11;21.75;;;4.13;;
22250;SDS011;59348;52.158;5.588;2023-02-18T11:06:39;16.17;;;3.58;;
22250;SDS011;59348;52.158;5.588;2023-02-18T11:09:12;17.10;;;3.28;;
22250;SDS011;59348;52.158;5.588;2023-02-18T11:11:47;16.42;;;3.53;;
22250;SDS011;59348;52.158;5.588;2023-02-18T11:14:20;17.02;;;3.83;;
22250;SDS011;59348;52.158;5.588;2023-02-18T11:17:06;14.65;;;3.05;;
22250;SDS011;59348;52.158;5.588;2023-02-18T11:19:34;18.70;;;3.45;;
22250;SDS011;59348;52.158;5.588;2023-02-18T11:22:06;18.35;;;3.85;;
22250;SDS011;59348;52.158;5.588;2023-02-18T11:24:36;13.95;;;3.15;;
22250;SDS011;59348;52.158;5.588;2023-02-18T11:27:07;14.43;;;3.47;;
22250;SDS011;59348;52.158;5.588;2023-02-18T11:29:35;16.67;;;3.63;;
22250;SDS011;59348;52.158;5.588;2023-02-18T11:32:03;16.02;;;3.60;;
22250;SDS011;59348;52.158;5.588;2023-02-18T11:34:30;14.77;;;3.60;;
22250;SDS011;59348;52.158;5.588;2023-02-18T11:37:07;15.52;;;3.40;;
22250;SDS011;59348;52.158;5.588;2023-02-18T11:39:35;15.70;;;3.40;;
22250;SDS011;59348;52.158;5.588;2023-02-18T11:42:03;16.42;;;3.80;;
22250;SDS011;59348;52.158;5.588;2023-02-18T11:44:33;18.00;;;3.72;;
22250;SDS011;59348;52.158;5.588;2023-02-18T11:47:03;16.38;;;3.60;;
22250;SDS011;59348;52.158;5.588;2023-02-18T11:49:31;10.70;;;3.03;;
22250;SDS011;59348;52.158;5.588;2023-02-18T11:52:03;14.00;;;3.42;;
22250;SDS011;59348;52.158;5.588;2023-02-18T11:54:31;13.55;;;3.67;;
22250;SDS011;59348;52.158;5.588;2023-02-18T11:57:01;17.85;;;3.70;;
22250;SDS011;59348;52.158;5.588;2023-02-18T11:59:31;12.52;;;3.10;;
22250;SDS011;59348;52.158;5.588;2023-02-18T12:02:01;14.60;;;3.72;;
22250;SDS011;59348;52.158;5.588;2023-02-18T12:04:33;13.93;;;3.05;;
22250;SDS011;59348;52.158;5.588;2023-02-18T12:07:05;13.10;;;3.13;;
22250;SDS011;59348;52.158;5.588;2023-02-18T12:09:34;14.95;;;2.95;;
22250;SDS011;59348;52.158;5.588;2023-02-18T12:12:04;15.10;;;3.10;;
22250;SDS011;59348;52.158;5.588;2023-02-18T12:14:33;12.45;;;2.88;;
22250;SDS011;59348;52.158;5.588;2023-02-18T12:17:07;18.90;;;3.00;;
22250;SDS011;59348;52.158;5.588;2023-02-18T12:19:41;14.95;;;3.65;;
22250;SDS011;59348;52.158;5.588;2023-02-18T12:22:12;17.30;;;3.20;;
22250;SDS011;59348;52.158;5.588;2023-02-18T12:24:45;20.13;;;3.45;;
22250;SDS011;59348;52.158;5.588;2023-02-18T12:27:15;22.02;;;3.35;;
22250;SDS011;59348;52.158;5.588;2023-02-18T12:29:50;18.75;;;3.13;;
22250;SDS011;59348;52.158;5.588;2023-02-18T12:32:23;17.48;;;2.90;;
22250;SDS011;59348;52.158;5.588;2023-02-18T12:34:58;20.55;;;3.50;;
22250;SDS011;59348;52.158;5.588;2023-02-18T12:37:34;12.52;;;3.00;;
22250;SDS011;59348;52.158;5.588;2023-02-18T12:40:13;11.82;;;3.05;;
22250;SDS011;59348;52.158;5.588;2023-02-18T12:42:48;17.02;;;3.20;;
22250;SDS011;59348;52.158;5.588;2023-02-18T12:45:26;12.57;;;3.25;;
22250;SDS011;59348;52.158;5.588;2023-02-18T12:48:03;12.10;;;3.17;;
22250;SDS011;59348;52.158;5.588;2023-02-18T12:50:40;15.35;;;2.80;;
22250;SDS011;59348;52.158;5.588;2023-02-18T12:53:15;13.00;;;2.58;;
22250;SDS011;59348;52.158;5.588;2023-02-18T12:55:50;14.15;;;2.88;;
22250;SDS011;59348;52.158;5.588;2023-02-18T12:58:24;12.93;;;2.70;;
22250;SDS011;59348;52.158;5.588;2023-02-18T13:00:59;14.00;;;3.28;;
22250;SDS011;59348;52.158;5.588;2023-02-18T13:03:33;11.90;;;3.00;;
22250;SDS011;59348;52.158;5.588;2023-02-18T13:06:10;10.57;;;2.97;;
22250;SDS011;59348;52.158;5.588;2023-02-18T13:08:42;10.82;;;2.55;;
22250;SDS011;59348;52.158;5.588;2023-02-18T13:11:12;14.52;;;2.55;;
22250;SDS011;59348;52.158;5.588;2023-02-18T13:13:44;15.38;;;2.70;;
22250;SDS011;59348;52.158;5.588;2023-02-18T13:16:15;9.52;;;2.47;;
22250;SDS011;59348;52.158;5.588;2023-02-18T13:18:44;8.80;;;2.40;;
22250;SDS011;59348;52.158;5.588;2023-02-18T13:21:16;11.43;;;2.20;;
22250;SDS011;59348;52.158;5.588;2023-02-18T13:23:45;9.05;;;2.20;;
22250;SDS011;59348;52.158;5.588;2023-02-18T13:26:15;9.73;;;2.17;;
22250;SDS011;59348;52.158;5.588;2023-02-18T13:28:46;5.70;;;1.80;;
22250;SDS011;59348;52.158;5.588;2023-02-18T13:31:18;6.93;;;1.90;;
22250;SDS011;59348;52.158;5.588;2023-02-18T13:33:49;8.38;;;2.20;;
22250;SDS011;59348;52.158;5.588;2023-02-18T13:36:24;11.18;;;2.22;;
22250;SDS011;59348;52.158;5.588;2023-02-18T13:38:57;9.75;;;2.33;;
22250;SDS011;59348;52.158;5.588;2023-02-18T13:41:26;7.72;;;1.90;;
22250;SDS011;59348;52.158;5.588;2023-02-18T13:43:54;10.57;;;2.40;;
22250;SDS011;59348;52.158;5.588;2023-02-18T13:46:21;9.57;;;2.22;;
22250;SDS011;59348;52.158;5.588;2023-02-18T13:48:49;11.77;;;2.03;;
22250;SDS011;59348;52.158;5.588;2023-02-18T13:51:27;7.05;;;2.17;;
22250;SDS011;59348;52.158;5.588;2023-02-18T13:53:59;6.72;;;2.28;;
22250;SDS011;59348;52.158;5.588;2023-02-18T13:56:27;8.15;;;2.00;;
22250;SDS011;59348;52.158;5.588;2023-02-18T13:58:58;9.07;;;2.35;;
22250;SDS011;59348;52.158;5.588;2023-02-18T14:04:02;8.10;;;2.05;;
22250;SDS011;59348;52.158;5.588;2023-02-18T14:06:34;8.43;;;2.10;;
22250;SDS011;59348;52.158;5.588;2023-02-18T14:11:53;9.88;;;2.10;;
22250;SDS011;59348;52.158;5.588;2023-02-18T14:14:37;7.30;;;2.10;;
22250;SDS011;59348;52.158;5.588;2023-02-18T14:17:22;8.68;;;2.22;;
22250;SDS011;59348;52.158;5.588;2023-02-18T14:26:08;7.47;;;2.38;;
22250;SDS011;59348;52.158;5.588;2023-02-18T14:29:03;7.50;;;2.20;;
22250;SDS011;59348;52.158;5.588;2023-02-18T14:31:53;8.25;;;2.45;;
22250;SDS011;59348;52.158;5.588;2023-02-18T14:34:35;13.13;;;2.50;;
22250;SDS011;59348;52.158;5.588;2023-02-18T14:37:09;9.02;;;2.20;;
22250;SDS011;59348;52.158;5.588;2023-02-18T14:39:43;6.57;;;2.55;;
22250;SDS011;59348;52.158;5.588;2023-02-18T14:42:17;13.07;;;2.40;;
22250;SDS011;59348;52.158;5.588;2023-02-18T14:44:51;12.40;;;2.55;;
22250;SDS011;59348;52.158;5.588;2023-02-18T14:47:24;9.30;;;2.75;;
22250;SDS011;59348;52.158;5.588;2023-02-18T14:49:54;9.48;;;2.70;;
22250;SDS011;59348;52.158;5.588;2023-02-18T14:52:26;12.00;;;3.08;;
22250;SDS011;59348;52.158;5.588;2023-02-18T14:54:55;7.38;;;2.35;;
22250;SDS011;59348;52.158;5.588;2023-02-18T14:57:26;9.00;;;2.38;;
22250;SDS011;59348;52.158;5.588;2023-02-18T14:59:56;8.40;;;2.10;;
22250;SDS011;59348;52.158;5.588;2023-02-18T15:02:27;5.32;;;2.22;;